Date,TemperatureHighF,TemperatureAvgF,TemperatureLowF,DewpointHighF,DewpointAvgF,DewpointLowF,HumidityHigh,HumidityAvg,HumidityLow,PressureMaxIn,PressureMinIn,WindSpeedMaxMPH,WindSpeedAvgMPH,GustSpeedMaxMPH,PrecipitationSumIn
2013-2-1,12,8,4,9,3,0,89,81,65,30.36,30.02,12,5,16,0.00
2013-2-2,23,16,6,20,12,3,92,86,74,30.28,30.00,9,3,12,0.00
2013-2-3,20,15,10,17,12,7,91,85,79,30.07,29.95,15,3,17,0.00
2013-2-4,24,20,16,20,17,13,93,90,84,30.08,29.89,5,2,6,0.00
2013-2-5,29,21,9,26,19,7,95,90,76,30.03,29.84,9,3,12,0.00
2013-2-6,35,26,18,25,20,16,95,77,55,30.29,30.03,6,2,9,0.09
2013-2-7,39,30,24,31,25,20,95,82,69,30.23,29.83,7,4,12,0.12
2013-2-8,31,28,21,30,24,19,96,86,74,30.38,29.83,12,5,15,0.00
2013-2-9,34,24,12,24,19,11,95,82,64,30.46,30.23,8,3,11,0.00
2013-2-10,43,33,25,42,29,21,98,85,74,30.23,29.62,9,5,13,0.09
2013-2-11,46,35,29,44,28,22,97,76,67,29.97,29.57,19,11,25,0.01
2013-2-12,30,28,27,23,22,21,84,80,74,30.11,29.97,17,6,22,0.00
2013-2-13,43,31,20,31,25,18,94,78,58,29.97,29.75,6,2,11,0.00
2013-2-14,39,34,30,34,30,25,92,83,71,29.94,29.70,19,7,25,0.00
2013-2-15,32,26,18,26,20,15,91,79,59,30.18,29.94,9,4,12,0.00
2013-2-16,21,17,10,19,13,7,93,83,62,30.16,30.09,14,5,19,0.00
2013-2-17,27,17,4,16,10,0,93,77,57,30.28,30.15,4,1,5,0.00
2013-2-18,50,35,21,42,28,14,92,74,60,30.19,29.50,13,7,23,0.05
2013-2-19,44,22,14,41,18,10,94,86,76,30.07,29.44,20,11,26,0.00
2013-2-20,21,18,14,16,14,11,90,84,76,30.35,30.07,13,8,20,0.00
2013-2-21,25,22,18,20,17,14,86,81,77,30.42,30.16,15,6,18,0.00
2013-2-22,32,26,20,31,24,16,96,90,80,30.16,29.88,15,7,21,0.00
2013-2-23,29,26,24,23,21,18,88,80,66,29.98,29.92,7,4,15,0.00
2013-2-24,35,27,22,26,22,19,94,81,68,30.19,29.96,12,4,15,0.01
2013-2-25,40,29,16,28,23,14,96,80,58,30.25,30.07,6,2,8,0.00
2013-2-26,33,31,28,31,27,22,96,85,70,30.08,29.48,13,6,20,0.00
2013-2-27,34,32,31,33,31,30,98,96,93,29.61,29.47,5,1,6,0.34
2013-2-28,37,33,30,32,30,27,98,90,78,29.99,29.61,7,4,11,0.23